FW3065 Weather Reports


Display with metric or nautical units.
time (UTC)temp
F
wind
direction
speed
MPH
gust
MPH
rain 1hr
in
rain 24hr
in
rain mn
in
humidity
%
barometer
mb
20210624204518 80 211 6.0 10.0 0.00 0.00 0.00 25 1026.8
20210624203110 80 185 9.0 14.0 0.00 0.00 0.00 23 1027.1
20210624201535 80 179 6.0 14.0 0.00 0.00 0.00 24 1027.4
20210624200214 80 198 8.0 19.0 0.00 0.00 0.00 24 1027.6
20210624200011 80 198 8.0 19.0 0.00 0.00 0.00 24 1027.5
20210624194645 80 198 6.0 12.0 0.00 0.00 0.00 24 1027.7
20210624193148 79 218 8.0 15.0 0.00 0.00 0.00 24 1027.7
20210624191648 80 197 8.0 12.0 0.00 0.00 0.00 25 1027.9
20210624190042 79 211 7.0 16.0 0.00 0.00 0.00 27 1028.0
20210624184520 80 193 3.0 15.0 0.00 0.00 0.00 26 1028.4
20210624183105 77 207 6.0 10.0 0.00 0.00 0.00 28 1028.9
20210624181552 79 218 7.0 13.0 0.00 0.00 0.00 26 1029.1
20210624180004 80 250 5.0 12.0 0.00 0.00 0.00 26 1029.1
20210624174636 79 185 7.0 14.0 0.00 0.00 0.00 26 1028.9
20210624173128 79 220 6.0 13.0 0.00 0.00 0.00 26 1028.7
20210624171603 79 160 7.0 12.0 0.00 0.00 0.00 25 1028.8
20210624170122 79 151 6.0 13.0 0.00 0.00 0.00 27 1028.9
20210624164700 79 194 4.0 11.0 0.00 0.00 0.00 28 1028.9
20210624164507 78 211 5.0 11.0 0.00 0.00 0.00 28 1029.0
20210624163054 77 205 7.0 10.0 0.00 0.00 0.00 28 1029.1
20210624161525 78 205 7.0 11.0 0.00 0.00 0.00 28 1029.1
20210624160126 77 194 6.0 13.0 0.00 0.00 0.00 29 1029.2
20210624154609 77 215 9.0 13.0 0.00 0.00 0.00 29 1029.3
20210624153012 76 159 7.0 10.0 0.00 0.00 0.00 30 1029.3
20210624151556 76 188 5.0 11.0 0.00 0.00 0.00 31 1029.5
20210624150027 75 234 6.0 10.0 0.00 0.00 0.00 33 1029.4
20210624144658 74 176 6.0 14.0 0.00 0.00 0.00 33 1029.4
20210624143044 74 210 5.0 15.0 0.00 0.00 0.00 35 1029.5
20210624141517 72 194 7.0 14.0 0.00 0.00 0.00 36 1029.6
20210624140110 73 205 3.0 12.0 0.00 0.00 0.00 37 1029.8
20210624134540 72 161 2.0 8.0 0.00 0.00 0.00 41 1029.8
20210624133005 70 194 1.0 6.0 0.00 0.00 0.00 44 1030.0
20210624131551 66 220 1.0 4.0 0.00 0.00 0.00 58 1030.1
20210624130025 64 159 0.0 2.0 0.00 0.00 0.00 62 1030.2
20210624124640 61 121 0.0 4.0 0.00 0.00 0.00 64 1030.3
20210624123048 60 134 0.0 3.0 0.00 0.00 0.00 64 1030.3
20210624121510 57 206 0.0 4.0 0.00 0.00 0.00 67 1030.2
20210624120051 54 206 1.0 4.0 0.00 0.00 0.00 70 1030.3
20210624114525 53 194 3.0 6.0 0.00 0.00 0.00 72 1030.3
20210624113156 51 207 1.0 5.0 0.00 0.00 0.00 73 1030.2
20210624111633 49 210 1.0 3.0 0.00 0.00 0.00 75 1030.2
20210624110015 48 213 0.0 4.0 0.00 0.00 0.00 80 1030.0
20210624104553 47 230 1.0 3.0 0.00 0.00 0.00 85 1030.1
20210624103027 46 232 0.0 0.0 0.00 0.00 0.00 86 1030.0
20210624101654 45 232 0.0 0.0 0.00 0.00 0.00 87 1030.0
20210624101505 45 232 0.0 0.0 0.00 0.00 0.00 87 1030.0
20210624100055 44 232 0.0 3.0 0.00 0.00 0.00 87 1029.8
20210624094531 43 234 0.0 0.0 0.00 0.00 0.00 87 1029.7
20210624093104 44 234 0.0 0.0 0.00 0.00 0.00 86 1029.4
20210624091536 43 234 0.0 0.0 0.00 0.00 0.00 86 1029.2
20210624090033 43 234 0.0 1.0 0.00 0.00 0.00 86 1029.1
20210624084622 44 234 0.0 2.0 0.00 0.00 0.00 86 1029.1
20210624083042 44 234 0.0 0.0 0.00 0.00 0.00 86 1028.9
20210624081645 44 234 0.0 2.0 0.00 0.00 0.00 86 1028.9
20210624080043 44 234 0.0 1.0 0.00 0.00 0.00 86 1028.8
20210624074538 45 234 0.0 1.0 0.00 0.00 0.00 86 1028.5
20210624073120 45 234 0.0 2.0 0.00 0.00 0.00 86 1028.3
20210624071546 45 234 0.0 1.0 0.00 0.00 0.00 86 1028.2
20210624070036 45 234 0.0 1.0 0.00 0.00 0.00 86 1028.1
20210624064552 45 234 0.0 0.0 0.00 0.00 0.00 86 1028.2
20210624063243 45 234 1.0 2.0 0.00 0.00 0.00 86 1028.2
20210624061600 46 234 0.0 2.0 0.00 0.00 0.00 85 1028.0
20210624060016 46 234 0.0 2.0 0.00 0.00 0.00 85 1027.8
20210624054606 47 234 0.0 2.0 0.00 0.00 0.00 84 1028.0
20210624053045 47 234 0.0 1.0 0.00 0.00 0.00 84 1028.0
20210624051513 48 234 0.0 1.0 0.00 0.00 0.00 84 1028.1
20210624050042 48 234 0.0 0.0 0.00 0.00 0.00 83 1028.2
20210624044550 48 233 0.0 3.0 0.00 0.00 0.00 82 1028.0
20210624043119 49 234 0.0 0.0 0.00 0.00 0.00 81 1027.9
20210624043011 49 234 0.0 0.0 0.00 0.00 0.00 81 1027.8
20210624041550 50 234 0.0 0.0 0.00 0.00 0.00 80 1027.8
20210624040016 50 220 0.0 0.0 0.00 0.00 0.00 78 1027.8
20210624034547 50 220 0.0 0.0 0.00 0.00 0.00 76 1027.8
20210624033107 51 220 0.0 0.0 0.00 0.00 0.00 75 1027.4
20210624031736 51 221 0.0 0.0 0.00 0.00 0.00 74 1027.3
20210624031516 51 221 0.0 0.0 0.00 0.00 0.00 74 1027.3
20210624030103 51 221 0.0 0.0 0.00 0.00 0.00 73 1027.1
20210624024527 52 221 0.0 0.0 0.00 0.00 0.00 72 1027.0
20210624023114 52 221 0.0 0.0 0.00 0.00 0.00 71 1026.8
20210624021603 54 221 0.0 0.0 0.00 0.00 0.00 68 1026.6
20210624020037 54 221 0.0 0.0 0.00 0.00 0.00 67 1026.4
20210624014644 55 221 0.0 0.0 0.00 0.00 0.00 66 1026.3
20210624013045 56 221 0.0 0.0 0.00 0.00 0.00 63 1026.2
20210624011530 57 221 0.0 0.0 0.00 0.00 0.00 61 1026.0
20210624010055 58 221 0.0 0.0 0.00 0.00 0.00 60 1025.7
20210624004539 60 221 0.0 0.0 0.00 0.00 0.00 58 1025.5
20210624003004 63 221 0.0 0.0 0.00 0.00 0.00 54 1025.2
20210624001651 65 221 0.0 0.0 0.00 0.00 0.00 47 1025.0
20210624000023 67 223 0.0 2.0 0.00 0.00 0.00 39 1024.9
20210623234704 68 229 0.0 3.0 0.00 0.00 0.00 36 1024.8
20210623233112 69 241 1.0 5.0 0.00 0.00 0.00 35 1024.7
20210623231516 70 314 1.0 4.0 0.00 0.00 0.00 35 1024.5
20210623230108 70 242 2.0 9.0 0.00 0.00 0.00 34 1024.2
20210623224552 70 264 1.0 8.0 0.00 0.00 0.00 31 1024.1
20210623223139 71 184 2.0 5.0 0.00 0.00 0.00 32 1024.0
20210623223004 71 155 2.0 5.0 0.00 0.00 0.00 31 1023.9
20210623221608 71 191 4.0 13.0 0.00 0.00 0.00 31 1023.7
20210623220026 71 273 3.0 9.0 0.00 0.01 0.00 33 1023.6
20210623214644 71 318 3.0 8.0 0.00 0.01 0.00 30 1023.5
20210623213118 72 229 3.0 10.0 0.00 0.01 0.00 30 1023.5
20210623211508 72 302 3.0 9.0 0.00 0.01 0.00 29 1023.5
20210623210137 71 215 2.0 11.0 0.00 0.03 0.00 31 1023.4